Weather at Taichung Airport [CLOSED]

Public forecast

Using degrees Celsius for public forecast. Weather courtesy of forecast.io.

Closest aviation weather report (METAR) to Taichung Airport

Closest report is Taichung Ching Chuang Kang Airport, 5.0 nm (9.3 km) NNW. Retrieved 2020/10/21 07:30 UTC (0 seconds ago):

RCMQ 210730Z 33006KT 9999 FEW010 SCT020 BKN050 28/23 Q1005 NOSIG RMK A2970

Closest aviation forecast (TAF) to Taichung Airport

Closest forecast is Taichung Ching Chuang Kang Airport, 5.0 nm (9.3 km) NNW. Retrieved 2020/10/21 06:21 UTC (1 hour ago):

TAF RCMQ 210500Z 2106/2206 02006KT 9999 FEW012 BKN030 TX30/2205Z TN21/2121Z BECMG 2112/2115 02004KT 7000 TEMPO 2118/2123 3200 RABR FEW006 BKN020 BECMG 2201/2204 5000 RABR FEW012 BKN016